Time;durP1;ratioP1;P1;durP2;ratioP2;P2;SDS_P1;SDS_P2;PMS_P1;PMS_P2;Temp;Humidity;BMP_temperature;BMP_pressure;BME280_temperature;BME280_humidity;BME280_pressure;Samples;Min_cycle;Max_cycle;Signal;HPM_P1;HPM_P2
2022/03/11 00:01:10;;;;;;;10.70;5.90;;;6.90;99.90;;;;;;5035764;28;20209;-39
2022/03/11 00:03:35;;;;;;;10.47;6.23;;;6.90;99.90;;;;;;5035427;28;20607;-40
2022/03/11 00:06:01;;;;;;;11.17;6.90;;;6.90;99.90;;;;;;5035701;28;20658;-41
2022/03/11 00:08:27;;;;;;;12.37;6.63;;;6.90;99.90;;;;;;5035511;28;20210;-40
2022/03/11 00:10:52;;;;;;;9.40;5.97;;;6.90;99.90;;;;;;5035584;28;20201;-40
2022/03/11 00:13:18;;;;;;;9.33;5.70;;;6.90;99.90;;;;;;5035300;28;20186;-41
2022/03/11 00:15:43;;;;;;;9.20;6.40;;;6.90;99.90;;;;;;5035553;28;20165;-38
2022/03/11 00:18:09;;;;;;;13.73;7.47;;;6.90;99.90;;;;;;5035097;28;20187;-38
2022/03/11 00:20:35;;;;;;;11.57;6.47;;;6.90;99.90;;;;;;5035166;28;20184;-39
2022/03/11 00:23:01;;;;;;;11.10;7.13;;;6.90;99.90;;;;;;5035158;28;20203;-39
2022/03/11 00:25:29;;;;;;;11.57;6.33;;;6.80;99.90;;;;;;5035029;28;20204;-42
2022/03/11 00:27:55;;;;;;;9.07;5.93;;;6.80;99.90;;;;;;5034934;28;20282;-40
2022/03/11 00:30:20;;;;;;;10.50;6.80;;;6.80;99.90;;;;;;5034104;28;20266;-41
2022/03/11 00:32:47;;;;;;;12.63;6.87;;;6.70;99.90;;;;;;5034848;28;20192;-39
2022/03/11 00:35:13;;;;;;;12.23;7.17;;;6.70;99.90;;;;;;5035156;28;20187;-41
2022/03/11 00:37:40;;;;;;;11.57;6.63;;;6.60;99.90;;;;;;5034721;28;20279;-40
2022/03/11 00:40:07;;;;;;;9.00;6.10;;;6.60;99.90;;;;;;5034985;28;20250;-41
2022/03/11 00:42:33;;;;;;;9.83;5.63;;;6.50;99.90;;;;;;5034947;28;20215;-40
2022/03/11 00:44:59;;;;;;;10.63;5.77;;;6.50;99.90;;;;;;5034683;28;20704;-41
2022/03/11 00:47:26;;;;;;;7.60;4.33;;;6.40;99.90;;;;;;5034828;28;20223;-40
2022/03/11 00:49:52;;;;;;;14.40;6.73;;;6.40;99.90;;;;;;5017168;28;20184;-40
2022/03/11 00:52:17;;;;;;;9.53;5.93;;;6.50;99.90;;;;;;5034776;28;20278;-40
2022/03/11 00:54:43;;;;;;;8.83;5.87;;;6.40;99.90;;;;;;5034490;28;20644;-42
2022/03/11 00:57:09;;;;;;;8.60;5.67;;;6.40;99.90;;;;;;5034558;28;20561;-42
2022/03/11 00:59:34;;;;;;;11.40;7.07;;;6.40;99.90;;;;;;5034520;28;20230;-41
2022/03/11 01:02:00;;;;;;;13.23;7.43;;;6.40;99.90;;;;;;5034619;28;20183;-39
2022/03/11 01:04:25;;;;;;;12.83;5.67;;;6.40;99.90;;;;;;5016519;28;20219;-41
2022/03/11 01:06:51;;;;;;;12.20;6.70;;;6.30;99.90;;;;;;5035039;28;20178;-41
2022/03/11 01:09:16;;;;;;;9.70;6.17;;;6.30;99.90;;;;;;5034458;28;20179;-40
2022/03/11 01:11:42;;;;;;;12.07;5.73;;;6.30;99.90;;;;;;5034102;28;20250;-39
2022/03/11 01:14:08;;;;;;;8.60;4.97;;;6.30;99.90;;;;;;5034093;28;20225;-42
2022/03/11 01:16:34;;;;;;;9.27;6.53;;;6.30;99.90;;;;;;5034085;28;20211;-42
2022/03/11 01:19:00;;;;;;;12.57;5.63;;;6.30;99.90;;;;;;5034214;28;20195;-43
2022/03/11 01:21:25;;;;;;;9.73;6.23;;;6.20;99.90;;;;;;5034509;28;20184;-41
2022/03/11 01:23:51;;;;;;;11.50;6.90;;;6.20;99.90;;;;;;5033841;28;20207;-41
2022/03/11 01:26:17;;;;;;;12.37;6.93;;;6.20;99.90;;;;;;5016250;28;20188;-43
2022/03/11 01:28:43;;;;;;;13.67;7.00;;;6.10;99.90;;;;;;5034098;28;20661;-42
2022/03/11 01:31:11;;;;;;;13.60;6.83;;;6.10;99.90;;;;;;5034131;28;20191;-40
2022/03/11 01:33:40;;;;;;;9.57;6.30;;;6.00;99.90;;;;;;5033733;28;20550;-41
2022/03/11 01:36:07;;;;;;;12.27;6.07;;;6.00;99.90;;;;;;5033146;28;20537;-39
2022/03/11 01:38:32;;;;;;;10.30;6.50;;;5.90;99.90;;;;;;5033657;28;20199;-39
2022/03/11 01:40:58;;;;;;;10.03;5.93;;;5.80;99.90;;;;;;5033776;28;20181;-39
2022/03/11 01:43:23;;;;;;;14.27;6.63;;;5.80;99.90;;;;;;5033585;28;20207;-42
2022/03/11 01:45:49;;;;;;;10.13;6.53;;;5.80;99.90;;;;;;5033858;28;20180;-39
2022/03/11 01:48:14;;;;;;;9.63;6.70;;;5.80;99.90;;;;;;5033468;28;20287;-40
2022/03/11 01:50:41;;;;;;;10.70;5.77;;;5.80;99.90;;;;;;5033843;28;20182;-41
2022/03/11 01:53:11;;;;;;;8.90;5.17;;;5.80;99.90;;;;;;5033761;28;20174;-41
2022/03/11 01:55:37;;;;;;;11.17;6.87;;;5.80;99.90;;;;;;5033625;28;20189;-40
2022/03/11 01:58:05;;;;;;;7.83;4.97;;;5.80;99.90;;;;;;5033640;28;20216;-40
2022/03/11 02:00:31;;;;;;;14.17;6.20;;;5.80;99.90;;;;;;5033418;28;20177;-40
2022/03/11 02:02:57;;;;;;;9.27;5.47;;;5.90;99.90;;;;;;5033364;28;20193;-38
2022/03/11 02:05:23;;;;;;;9.70;6.17;;;5.90;99.90;;;;;;5033517;28;20298;-42
2022/03/11 02:07:49;;;;;;;8.73;5.17;;;5.90;99.90;;;;;;5033298;28;20202;-41
2022/03/11 02:10:15;;;;;;;7.90;4.47;;;5.90;99.90;;;;;;5033682;28;20173;-42
2022/03/11 02:12:43;;;;;;;7.83;5.30;;;5.90;99.90;;;;;;5033253;28;20278;-41
2022/03/11 02:15:09;;;;;;;9.93;6.43;;;5.90;99.90;;;;;;5033275;28;20186;-42
2022/03/11 02:17:35;;;;;;;7.03;4.40;;;5.90;99.90;;;;;;5033344;28;20696;-41
2022/03/11 02:20:02;;;;;;;8.13;5.30;;;5.90;99.90;;;;;;5034242;28;20199;-38
2022/03/11 02:22:32;;;;;;;9.90;5.50;;;5.90;99.90;;;;;;5035086;28;20641;-39
2022/03/11 02:24:58;;;;;;;10.77;6.37;;;5.90;99.90;;;;;;5034050;28;20193;-40
2022/03/11 02:27:24;;;;;;;10.53;5.80;;;5.90;99.90;;;;;;5033126;28;20232;-41
2022/03/11 02:29:49;;;;;;;14.17;6.97;;;5.80;99.90;;;;;;5033381;28;20183;-39
2022/03/11 02:32:15;;;;;;;9.20;6.10;;;5.80;99.90;;;;;;5033410;28;20645;-40
2022/03/11 02:34:40;;;;;;;11.27;6.80;;;5.70;99.90;;;;;;5033693;28;20175;-41
2022/03/11 02:37:08;;;;;;;11.03;6.77;;;5.60;99.90;;;;;;5032993;28;20211;-40
2022/03/11 02:39:34;;;;;;;10.77;6.10;;;5.50;99.90;;;;;;5032960;28;20226;-42
2022/03/11 02:42:01;;;;;;;9.87;6.23;;;5.40;99.90;;;;;;5033031;28;20259;-43
2022/03/11 02:44:29;;;;;;;10.70;6.13;;;5.40;99.90;;;;;;5033490;28;20284;-40
2022/03/11 02:46:55;;;;;;;8.73;5.77;;;5.40;99.90;;;;;;5033220;28;20191;-39
2022/03/11 02:49:21;;;;;;;11.60;6.70;;;5.40;99.90;;;;;;5035665;28;20243;-41
2022/03/11 02:51:46;;;;;;;10.33;6.20;;;5.30;99.90;;;;;;5037045;28;20580;-43
2022/03/11 02:54:12;;;;;;;12.67;6.03;;;5.40;99.90;;;;;;5037012;28;20186;-42
2022/03/11 02:56:37;;;;;;;8.80;5.93;;;5.40;99.90;;;;;;5036620;28;20551;-42
2022/03/11 02:59:03;;;;;;;10.97;5.73;;;5.40;99.90;;;;;;5037180;28;20239;-39
2022/03/11 03:01:29;;;;;;;9.63;5.33;;;5.40;99.90;;;;;;5036611;28;20264;-41
2022/03/11 03:03:54;;;;;;;10.57;6.70;;;5.40;99.90;;;;;;5036770;28;20795;-40
2022/03/11 03:06:20;;;;;;;12.40;6.30;;;5.40;99.90;;;;;;5036522;28;20676;-40
2022/03/11 03:08:46;;;;;;;9.20;5.93;;;5.40;99.90;;;;;;5036642;28;20193;-44
2022/03/11 03:11:11;;;;;;;10.47;5.73;;;5.40;99.90;;;;;;5036397;28;20182;-40
2022/03/11 03:13:37;;;;;;;9.87;6.30;;;5.40;99.90;;;;;;5036926;28;20303;-40
2022/03/11 03:16:03;;;;;;;9.27;5.80;;;5.40;99.90;;;;;;5036567;28;20320;-41
2022/03/11 03:18:30;;;;;;;6.43;3.83;;;5.40;99.90;;;;;;5036263;28;20201;-39
2022/03/11 03:20:55;;;;;;;8.27;5.13;;;5.30;99.90;;;;;;5036267;28;20173;-40
2022/03/11 03:23:21;;;;;;;11.23;6.23;;;5.30;99.90;;;;;;5036237;28;20535;-39
2022/03/11 03:25:46;;;;;;;10.37;5.87;;;5.30;99.90;;;;;;5036331;28;20214;-41
2022/03/11 03:28:12;;;;;;;10.03;5.83;;;5.30;99.90;;;;;;5036690;28;20236;-41
2022/03/11 03:30:37;;;;;;;7.20;4.17;;;5.30;99.90;;;;;;5036527;28;20185;-41
2022/03/11 03:33:03;;;;;;;7.10;4.27;;;5.30;99.90;;;;;;5036097;28;20205;-41
2022/03/11 03:35:29;;;;;;;9.70;5.33;;;5.20;99.90;;;;;;5036060;28;20216;-42
2022/03/11 03:37:54;;;;;;;7.87;4.73;;;5.30;99.90;;;;;;5036064;28;20284;-38
2022/03/11 03:40:20;;;;;;;12.43;6.20;;;5.30;99.90;;;;;;5036072;28;20185;-38
2022/03/11 03:42:47;;;;;;;8.87;5.10;;;5.20;99.90;;;;;;5036131;28;20171;-38
2022/03/11 03:45:13;;;;;;;8.17;4.80;;;5.30;99.90;;;;;;5035782;28;20346;-41
2022/03/11 03:47:38;;;;;;;10.73;5.83;;;5.30;99.90;;;;;;5035961;28;20201;-38
2022/03/11 03:50:04;;;;;;;8.20;5.47;;;5.30;99.90;;;;;;5035718;28;20263;-41
2022/03/11 03:52:30;;;;;;;6.43;3.20;;;5.30;99.90;;;;;;5035676;28;20185;-40
2022/03/11 03:54:56;;;;;;;7.37;4.37;;;5.20;99.90;;;;;;5035809;28;20254;-39
2022/03/11 03:57:22;;;;;;;9.53;3.90;;;5.20;99.90;;;;;;5035529;28;20204;-40
2022/03/11 03:59:47;;;;;;;4.30;2.27;;;5.20;99.90;;;;;;5034966;28;20188;-42
2022/03/11 04:02:13;;;;;;;7.90;4.40;;;5.20;99.90;;;;;;5035732;28;20543;-43
2022/03/11 04:04:39;;;;;;;5.53;3.63;;;5.10;99.90;;;;;;5035586;28;20262;-41
2022/03/11 04:07:04;;;;;;;7.00;3.30;;;5.10;99.90;;;;;;5035380;28;20282;-40
2022/03/11 04:09:30;;;;;;;5.80;2.87;;;5.10;99.90;;;;;;5035687;28;20187;-41
2022/03/11 04:11:56;;;;;;;12.77;6.67;;;5.10;99.90;;;;;;5035587;28;20189;-39
2022/03/11 04:14:21;;;;;;;9.87;5.87;;;5.10;99.90;;;;;;5035560;28;20190;-41
2022/03/11 04:16:47;;;;;;;9.97;5.97;;;5.00;99.90;;;;;;5035121;28;20222;-40
2022/03/11 04:19:13;;;;;;;8.53;4.97;;;5.00;99.90;;;;;;5035660;28;20188;-40
2022/03/11 04:21:38;;;;;;;10.10;5.57;;;5.00;99.90;;;;;;5035147;28;20181;-41
2022/03/11 04:24:12;;;;;;;12.00;6.23;;;4.90;99.90;;;;;;5035275;28;20244;-41
2022/03/11 04:26:38;;;;;;;10.43;6.27;;;4.90;99.90;;;;;;5035196;28;20202;-41
2022/03/11 04:29:04;;;;;;;11.00;4.90;;;4.90;99.90;;;;;;5034948;28;20188;-40
2022/03/11 04:31:30;;;;;;;12.10;5.27;;;4.90;99.90;;;;;;5034954;28;20173;-41
2022/03/11 04:33:57;;;;;;;8.43;4.93;;;4.90;99.90;;;;;;5034814;28;20279;-41
2022/03/11 04:36:23;;;;;;;6.30;3.97;;;5.00;99.90;;;;;;5034881;28;20181;-42
2022/03/11 04:38:48;;;;;;;8.50;4.60;;;5.00;99.90;;;;;;5034715;28;20193;-40
2022/03/11 04:41:14;;;;;;;11.33;5.47;;;5.00;99.90;;;;;;5034805;28;20186;-38
2022/03/11 04:43:39;;;;;;;5.37;3.23;;;5.00;99.90;;;;;;5035172;28;20223;-40
2022/03/11 04:46:06;;;;;;;13.43;5.37;;;5.00;99.90;;;;;;5034696;28;20633;-39
2022/03/11 04:48:31;;;;;;;8.13;5.53;;;4.90;99.90;;;;;;5034965;28;20201;-43
2022/03/11 04:50:57;;;;;;;6.50;3.80;;;4.90;99.90;;;;;;5034726;28;20280;-41
2022/03/11 04:53:23;;;;;;;9.97;6.03;;;4.90;99.90;;;;;;5034765;28;20200;-41
2022/03/11 04:55:49;;;;;;;6.47;3.87;;;4.90;99.90;;;;;;5034552;28;20227;-41
2022/03/11 04:58:14;;;;;;;5.60;3.73;;;4.90;99.90;;;;;;5034375;28;20751;-43
2022/03/11 05:00:40;;;;;;;8.00;4.57;;;4.90;99.90;;;;;;5016961;28;20211;-42
2022/03/11 05:03:07;;;;;;;14.87;5.57;;;4.90;99.90;;;;;;5034954;28;20234;-41
2022/03/11 05:05:32;;;;;;;9.13;5.20;;;4.80;99.90;;;;;;5034973;28;20236;-42
2022/03/11 05:07:58;;;;;;;7.90;4.00;;;4.90;99.90;;;;;;5034413;28;20250;-42
2022/03/11 05:10:23;;;;;;;6.30;4.33;;;4.90;99.90;;;;;;5034063;28;20185;-43
2022/03/11 05:12:49;;;;;;;14.20;6.40;;;4.80;99.90;;;;;;5033842;28;20255;-38
2022/03/11 05:15:15;;;;;;;10.10;6.23;;;4.90;99.90;;;;;;5034711;28;20194;-40
2022/03/11 05:17:40;;;;;;;9.60;4.77;;;4.80;99.90;;;;;;5035026;28;20197;-42
2022/03/11 05:20:07;;;;;;;7.27;4.53;;;4.80;99.90;;;;;;5036739;28;20264;-43
2022/03/11 05:22:33;;;;;;;17.50;6.20;;;4.80;99.90;;;;;;5040928;28;20181;-46
2022/03/11 05:24:59;;;;;;;9.77;5.77;;;4.80;99.90;;;;;;5036030;28;20246;-47
2022/03/11 05:27:26;;;;;;;11.30;5.93;;;4.80;99.90;;;;;;5034093;28;20242;-46
2022/03/11 05:29:51;;;;;;;8.67;5.10;;;4.80;99.90;;;;;;5034139;28;20181;-47
2022/03/11 05:32:19;;;;;;;6.87;3.93;;;4.80;99.90;;;;;;5033913;28;20192;-46
2022/03/11 05:34:46;;;;;;;12.10;6.40;;;4.80;99.90;;;;;;5034106;28;20196;-46
2022/03/11 05:37:12;;;;;;;12.30;7.00;;;4.90;99.90;;;;;;5033987;28;20208;-46
2022/03/11 05:39:38;;;;;;;7.63;4.03;;;4.80;99.90;;;;;;5033728;28;20176;-43
2022/03/11 05:42:05;;;;;;;5.23;3.83;;;4.80;99.90;;;;;;5033653;28;20268;-43
2022/03/11 05:44:30;;;;;;;10.60;6.07;;;4.80;99.90;;;;;;5033517;28;20208;-45
2022/03/11 05:46:56;;;;;;;7.33;4.30;;;4.80;99.90;;;;;;5033769;28;20747;-42
2022/03/11 05:49:22;;;;;;;9.77;6.10;;;4.70;99.90;;;;;;5033807;28;20666;-44
2022/03/11 05:51:48;;;;;;;12.47;5.57;;;4.80;99.90;;;;;;5033779;28;20173;-46
2022/03/11 05:54:36;;;;;;;12.23;6.07;;;4.70;99.90;;;;;;5015782;28;20185;-45
2022/03/11 05:57:02;;;;;;;9.00;4.90;;;4.70;99.90;;;;;;5033763;28;20640;-47
2022/03/11 05:59:29;;;;;;;11.53;4.50;;;4.70;99.90;;;;;;5033905;28;20248;-40
2022/03/11 06:01:55;;;;;;;9.20;5.80;;;4.70;99.90;;;;;;5034032;28;20243;-39
2022/03/11 06:04:21;;;;;;;5.83;3.60;;;4.70;99.90;;;;;;5033343;28;20208;-42
2022/03/11 06:06:47;;;;;;;10.03;4.80;;;4.70;99.90;;;;;;5033288;28;20176;-40
2022/03/11 06:09:12;;;;;;;10.87;6.67;;;4.70;99.90;;;;;;5033326;28;20216;-41
2022/03/11 06:11:39;;;;;;;9.03;5.13;;;4.70;99.90;;;;;;5033343;28;20632;-41
2022/03/11 06:14:05;;;;;;;12.33;6.93;;;4.70;99.90;;;;;;5033720;28;20555;-39
2022/03/11 06:16:31;;;;;;;10.97;6.63;;;4.70;99.90;;;;;;5033518;28;20610;-40
2022/03/11 06:18:57;;;;;;;12.80;7.60;;;4.60;99.90;;;;;;5033146;28;20204;-41
2022/03/11 06:21:22;;;;;;;11.87;6.47;;;4.60;99.90;;;;;;5033199;28;20550;-41
2022/03/11 06:23:48;;;;;;;14.43;5.67;;;4.60;99.90;;;;;;5036523;28;20185;-42
2022/03/11 06:26:13;;;;;;;13.53;6.80;;;4.60;99.90;;;;;;5037358;28;20248;-39
2022/03/11 06:28:39;;;;;;;12.97;6.80;;;4.60;99.90;;;;;;5037106;28;20196;-41
2022/03/11 06:31:04;;;;;;;13.77;7.33;;;4.60;99.90;;;;;;5037237;28;20181;-43
2022/03/11 06:33:30;;;;;;;12.00;6.03;;;4.60;99.90;;;;;;5037183;28;20579;-41
2022/03/11 06:35:55;;;;;;;17.97;8.37;;;4.60;99.90;;;;;;5037380;28;20177;-41
2022/03/11 06:38:21;;;;;;;12.03;7.70;;;4.60;99.90;;;;;;5036977;28;20228;-41
2022/03/11 06:40:49;;;;;;;13.00;5.90;;;4.60;99.90;;;;;;5036998;28;20185;-39
2022/03/11 06:43:15;;;;;;;15.13;7.77;;;4.60;99.90;;;;;;5037261;28;20173;-43
2022/03/11 06:45:41;;;;;;;26.53;5.87;;;4.70;99.90;;;;;;5037073;28;20212;-41
2022/03/11 06:48:06;;;;;;;7.70;3.70;;;4.60;99.90;;;;;;5036779;28;20200;-42
2022/03/11 06:50:32;;;;;;;15.10;8.57;;;4.70;99.90;;;;;;5036883;28;20209;-41
2022/03/11 06:52:57;;;;;;;10.30;6.10;;;4.70;99.90;;;;;;5037012;28;20181;-39
2022/03/11 06:55:23;;;;;;;12.50;6.47;;;4.80;99.90;;;;;;5036904;28;20264;-40
2022/03/11 06:57:49;;;;;;;10.07;5.33;;;4.80;99.90;;;;;;5036668;28;20209;-42
2022/03/11 07:00:15;;;;;;;17.17;7.40;;;4.80;99.90;;;;;;5036922;28;20189;-42
2022/03/11 07:02:41;;;;;;;12.33;6.63;;;4.80;99.90;;;;;;5036885;28;20188;-40
2022/03/11 07:05:08;;;;;;;6.60;3.53;;;4.90;99.90;;;;;;5036716;28;20214;-43
2022/03/11 07:07:33;;;;;;;11.00;6.67;;;4.90;99.90;;;;;;5036708;28;20567;-44
2022/03/11 07:10:00;;;;;;;12.13;6.83;;;5.00;99.90;;;;;;5036500;28;20180;-38
2022/03/11 07:12:27;;;;;;;8.53;4.43;;;5.00;99.90;;;;;;5036809;28;20607;-40
2022/03/11 07:14:53;;;;;;;15.17;7.27;;;5.10;99.90;;;;;;5036674;28;20625;-40
2022/03/11 07:17:18;;;;;;;12.23;7.20;;;5.10;99.90;;;;;;5036549;28;20201;-40
2022/03/11 07:19:44;;;;;;;14.97;6.57;;;5.20;99.90;;;;;;5036545;28;20184;-43
2022/03/11 07:22:10;;;;;;;13.43;7.57;;;5.20;99.90;;;;;;5036245;28;20648;-40
2022/03/11 07:24:35;;;;;;;11.33;5.90;;;5.30;99.90;;;;;;5036393;28;20214;-40
2022/03/11 07:27:01;;;;;;;8.70;4.60;;;5.30;99.90;;;;;;5018313;28;20203;-42
2022/03/11 07:29:27;;;;;;;13.20;6.37;;;5.40;99.90;;;;;;5036086;28;20181;-41
2022/03/11 07:31:52;;;;;;;7.00;4.57;;;5.40;99.90;;;;;;5036403;28;20185;-42
2022/03/11 07:34:18;;;;;;;18.00;8.60;;;5.40;99.90;;;;;;5035083;28;20208;-41
2022/03/11 07:36:44;;;;;;;8.50;5.13;;;5.50;99.90;;;;;;5036297;28;20181;-42
2022/03/11 07:39:10;;;;;;;13.37;7.53;;;5.60;99.90;;;;;;5036161;28;20612;-42
2022/03/11 07:41:36;;;;;;;12.40;7.67;;;5.60;99.90;;;;;;5018619;28;20194;-40
2022/03/11 07:44:03;;;;;;;12.77;7.63;;;5.70;99.90;;;;;;5037097;28;20245;-41
2022/03/11 07:46:30;;;;;;;6.33;3.97;;;5.70;99.90;;;;;;5036573;28;20178;-39
2022/03/11 07:48:57;;;;;;;13.17;7.60;;;5.80;99.90;;;;;;5036052;28;20223;-44
2022/03/11 07:51:25;;;;;;;9.87;5.97;;;5.90;99.90;;;;;;5035834;28;20238;-40
2022/03/11 07:53:50;;;;;;;13.87;8.53;;;6.00;99.90;;;;;;5036166;28;20257;-40
2022/03/11 07:56:16;;;;;;;17.67;8.03;;;6.00;99.90;;;;;;5035679;28;20227;-39
2022/03/11 07:58:42;;;;;;;10.73;5.20;;;6.10;99.90;;;;;;5035600;28;20219;-41
2022/03/11 08:01:12;;;;;;;9.43;6.27;;;6.20;99.90;;;;;;5035853;28;20204;-40
2022/03/11 08:03:39;;;;;;;16.73;7.00;;;6.30;99.90;;;;;;5035524;28;20196;-43
2022/03/11 08:06:08;;;;;;;17.60;7.80;;;6.30;99.90;;;;;;5017780;28;20189;-40
2022/03/11 08:08:37;;;;;;;12.10;6.07;;;6.40;99.90;;;;;;5035820;28;20202;-40
2022/03/11 08:11:04;;;;;;;19.37;9.23;;;6.50;99.90;;;;;;5035468;28;20183;-40
2022/03/11 08:13:30;;;;;;;13.67;7.60;;;6.60;99.90;;;;;;5035840;28;20533;-47
2022/03/11 08:15:56;;;;;;;10.57;5.17;;;6.60;99.90;;;;;;5035660;28;20199;-47
2022/03/11 08:18:22;;;;;;;16.77;8.47;;;6.70;99.90;;;;;;5035702;28;20238;-46
2022/03/11 08:20:47;;;;;;;12.70;6.50;;;6.80;99.90;;;;;;5035343;28;20167;-46
2022/03/11 08:23:14;;;;;;;15.30;6.97;;;6.80;99.90;;;;;;5035559;28;20289;-44
2022/03/11 08:25:40;;;;;;;13.17;7.30;;;6.90;99.90;;;;;;5035266;28;20325;-47
2022/03/11 08:28:10;;;;;;;13.53;6.13;;;7.00;99.90;;;;;;5035305;28;20213;-44
2022/03/11 08:30:45;;;;;;;17.63;8.43;;;7.00;99.90;;;;;;5035369;28;20187;-43
2022/03/11 08:33:11;;;;;;;12.47;7.07;;;7.00;99.90;;;;;;5017084;28;20701;-45
2022/03/11 08:35:37;;;;;;;13.33;7.97;;;7.10;99.90;;;;;;5034968;28;20179;-44
2022/03/11 08:38:06;;;;;;;10.67;6.60;;;7.10;99.90;;;;;;5034828;28;20211;-47
2022/03/11 08:40:32;;;;;;;18.23;8.93;;;7.10;99.90;;;;;;5035019;28;20187;-46
2022/03/11 08:42:59;;;;;;;9.80;6.00;;;7.20;99.90;;;;;;5035042;28;20191;-45
2022/03/11 08:45:24;;;;;;;14.97;7.47;;;7.30;99.90;;;;;;5034510;28;20207;-47
2022/03/11 08:47:50;;;;;;;11.30;6.87;;;7.40;99.90;;;;;;5034728;28;20309;-45
2022/03/11 08:50:17;;;;;;;16.43;8.70;;;7.40;99.90;;;;;;5034569;28;20184;-45
2022/03/11 08:52:42;;;;;;;13.97;6.77;;;7.60;99.90;;;;;;5034887;28;20181;-46
2022/03/11 08:55:09;;;;;;;15.77;9.77;;;7.60;99.90;;;;;;5034531;28;20189;-47
2022/03/11 08:57:35;;;;;;;13.53;7.83;;;7.70;99.90;;;;;;5034595;28;20208;-45
2022/03/11 09:00:07;;;;;;;15.03;9.70;;;7.70;99.90;;;;;;5016705;28;20185;-44
2022/03/11 09:02:37;;;;;;;17.50;9.87;;;7.80;99.90;;;;;;5034699;28;20530;-46
2022/03/11 09:05:03;;;;;;;15.17;8.10;;;7.90;99.90;;;;;;5034464;28;20223;-47
2022/03/11 09:07:29;;;;;;;9.97;5.80;;;8.00;99.90;;;;;;5034414;28;20660;-46
2022/03/11 09:09:55;;;;;;;16.07;8.03;;;8.10;99.90;;;;;;5034152;28;20185;-47
2022/03/11 09:12:21;;;;;;;10.47;7.27;;;8.10;99.90;;;;;;5034138;28;20176;-47
2022/03/11 09:14:47;;;;;;;12.60;7.23;;;8.20;99.90;;;;;;5016466;28;20211;-44
2022/03/11 09:17:12;;;;;;;21.53;7.23;;;8.20;99.90;;;;;;5034031;28;20258;-46
2022/03/11 09:19:38;;;;;;;15.97;7.53;;;8.30;99.90;;;;;;5034028;28;20185;-46
2022/03/11 09:22:04;;;;;;;14.43;8.23;;;8.30;99.90;;;;;;5033976;28;20192;-45
2022/03/11 09:24:30;;;;;;;12.33;7.70;;;8.40;99.90;;;;;;5033830;28;20208;-47
2022/03/11 09:26:55;;;;;;;13.80;8.80;;;8.50;99.90;;;;;;5033975;28;20255;-44
2022/03/11 09:29:23;;;;;;;19.13;7.40;;;8.60;99.90;;;;;;5033847;28;20179;-44
2022/03/11 09:31:49;;;;;;;16.03;8.40;;;8.60;99.90;;;;;;5016155;28;20231;-45
2022/03/11 09:34:15;;;;;;;14.37;7.10;;;8.70;99.90;;;;;;5033689;28;20664;-46
2022/03/11 09:36:42;;;;;;;20.47;9.93;;;8.80;99.90;;;;;;5033714;28;20212;-45
2022/03/11 09:39:07;;;;;;;19.63;10.63;;;8.80;99.90;;;;;;5034018;28;20516;-46
2022/03/11 09:41:33;;;;;;;20.90;11.47;;;9.00;99.90;;;;;;5033728;28;20186;-45
2022/03/11 09:44:01;;;;;;;18.00;10.03;;;9.00;99.90;;;;;;5034212;28;20237;-45
2022/03/11 09:46:28;;;;;;;17.67;10.70;;;9.10;99.90;;;;;;5034003;28;20178;-45
2022/03/11 09:48:53;;;;;;;13.27;7.50;;;9.10;99.90;;;;;;5033652;28;20666;-46
2022/03/11 09:51:20;;;;;;;21.07;10.77;;;9.20;99.90;;;;;;5033551;28;20235;-46
2022/03/11 09:53:45;;;;;;;14.03;8.43;;;9.30;99.90;;;;;;5033786;28;20540;-48
2022/03/11 09:56:11;;;;;;;12.50;8.57;;;9.40;99.90;;;;;;5015790;28;20179;-46
2022/03/11 09:58:36;;;;;;;15.53;10.27;;;9.50;99.90;;;;;;5033010;28;20802;-46
2022/03/11 10:01:05;;;;;;;9.33;5.57;;;9.50;99.90;;;;;;5033745;28;20294;-45
2022/03/11 10:03:30;;;;;;;13.60;8.27;;;9.60;99.90;;;;;;5033472;28;20169;-41
2022/03/11 10:05:56;;;;;;;19.53;11.00;;;9.70;99.90;;;;;;5033403;28;20207;-40
2022/03/11 10:08:35;;;;;;;14.10;8.27;;;9.80;99.90;;;;;;5033664;28;20231;-41
2022/03/11 10:11:23;;;;;;;19.37;11.83;;;9.80;99.90;;;;;;5033614;28;20183;-44
2022/03/11 10:13:49;;;;;;;13.47;8.23;;;9.90;99.90;;;;;;5033289;28;20580;-48
2022/03/11 10:16:17;;;;;;;18.27;10.17;;;10.00;99.90;;;;;;5033287;28;20184;-45
2022/03/11 10:18:56;;;;;;;15.87;11.73;;;10.10;99.90;;;;;;5033190;28;20764;-46
2022/03/11 10:21:30;;;;;;;14.37;9.43;;;10.20;99.90;;;;;;5033228;28;20171;-46
2022/03/11 10:23:55;;;;;;;12.93;8.80;;;10.30;99.90;;;;;;5033395;28;20169;-46
2022/03/11 10:26:39;;;;;;;21.63;9.97;;;10.30;99.90;;;;;;5033181;28;20256;-45
2022/03/11 10:29:06;;;;;;;23.33;11.10;;;10.40;99.90;;;;;;5033482;28;20169;-47
2022/03/11 10:31:34;;;;;;;19.40;8.27;;;10.60;99.90;;;;;;5033413;28;20181;-47
2022/03/11 10:34:17;;;;;;;12.23;6.97;;;10.70;99.90;;;;;;5033117;28;20192;-46
2022/03/11 10:37:05;;;;;;;18.13;9.67;;;10.80;99.90;;;;;;5033041;28;20690;-46
2022/03/11 10:39:38;;;;;;;21.50;11.67;;;10.80;99.90;;;;;;5033359;28;20169;-44
2022/03/11 10:42:23;;;;;;;21.73;12.83;;;10.90;99.90;;;;;;5033404;28;20594;-48
2022/03/11 10:45:02;;;;;;;19.27;11.93;;;11.00;99.90;;;;;;5033263;28;20210;-44
2022/03/11 10:47:32;;;;;;;14.93;9.63;;;11.10;99.90;;;;;;5033568;28;20196;-46
2022/03/11 10:50:01;;;;;;;13.10;7.97;;;11.20;99.90;;;;;;5033367;28;20602;-47
2022/03/11 10:52:35;;;;;;;15.30;10.33;;;11.30;99.90;;;;;;5033260;28;20244;-45
2022/03/11 10:55:22;;;;;;;13.30;7.97;;;11.30;99.90;;;;;;5032902;28;20226;-46
2022/03/11 10:57:51;;;;;;;17.60;11.27;;;11.40;99.90;;;;;;5032893;28;20197;-47
2022/03/11 11:00:24;;;;;;;18.90;11.67;;;11.50;99.90;;;;;;5032785;28;20379;-46
2022/03/11 11:03:10;;;;;;;17.50;11.43;;;11.50;99.90;;;;;;5033146;28;20188;-46
2022/03/11 11:05:37;;;;;;;19.10;11.33;;;11.60;99.90;;;;;;5014946;28;20205;-46
2022/03/11 11:08:06;;;;;;;16.60;12.17;;;11.60;99.90;;;;;;5032767;28;20294;-46
2022/03/11 11:10:35;;;;;;;21.00;12.23;;;11.60;99.90;;;;;;5035670;28;20177;-45
2022/03/11 11:13:01;;;;;;;22.07;11.20;;;11.70;99.90;;;;;;5036783;28;20185;-46
2022/03/11 11:15:26;;;;;;;14.47;8.70;;;11.80;99.90;;;;;;5036423;28;20181;-45
2022/03/11 11:17:53;;;;;;;18.33;12.30;;;11.80;99.90;;;;;;5036226;28;20241;-46
2022/03/11 11:20:45;;;;;;;17.30;12.13;;;11.90;99.90;;;;;;5036283;28;20179;-45
2022/03/11 11:23:11;;;;;;;24.80;13.00;;;12.00;99.90;;;;;;5036301;28;20161;-46
2022/03/11 11:25:37;;;;;;;21.13;13.27;;;12.00;99.90;;;;;;5036913;28;20211;-45
2022/03/11 11:28:12;;;;;;;16.73;10.70;;;12.00;99.90;;;;;;5036333;28;20189;-49
2022/03/11 11:30:38;;;;;;;22.50;13.03;;;12.10;99.90;;;;;;5036159;28;20718;-47
2022/03/11 11:33:04;;;;;;;23.90;13.47;;;12.20;99.90;;;;;;5035989;28;20196;-46
2022/03/11 11:35:33;;;;;;;18.40;11.33;;;12.30;99.90;;;;;;5036152;28;20231;-47
2022/03/11 11:38:07;;;;;;;16.97;11.33;;;12.40;99.90;;;;;;5035985;28;20291;-47
2022/03/11 11:40:38;;;;;;;22.27;12.83;;;12.60;99.90;;;;;;5036354;28;20265;-47
2022/03/11 11:43:26;;;;;;;19.43;12.67;;;12.60;99.90;;;;;;5036405;28;20180;-46
2022/03/11 11:45:58;;;;;;;24.30;12.67;;;12.70;99.90;;;;;;5036211;28;20622;-48
2022/03/11 11:48:35;;;;;;;19.10;13.07;;;12.80;99.90;;;;;;5036052;28;20215;-46
2022/03/11 11:51:06;;;;;;;15.93;11.77;;;12.90;99.90;;;;;;5036061;28;20172;-47
2022/03/11 11:53:42;;;;;;;18.27;12.43;;;12.90;99.90;;;;;;5035670;28;20189;-46
2022/03/11 11:56:30;;;;;;;17.93;12.00;;;13.10;99.90;;;;;;5035893;28;20252;-46
2022/03/11 11:59:02;;;;;;;12.20;6.87;;;13.20;99.90;;;;;;5035548;28;20204;-45
2022/03/11 12:01:40;;;;;;;18.00;11.20;;;13.20;99.90;;;;;;5035885;28;20703;-44
2022/03/11 12:04:35;;;;;;;14.27;9.27;;;13.30;99.90;;;;;;5035460;28;20197;-45
2022/03/11 12:07:04;;;;;;;21.67;11.00;;;13.30;99.90;;;;;;5035406;28;20185;-44
2022/03/11 12:09:39;;;;;;;18.57;13.47;;;13.40;99.90;;;;;;5035698;28;20291;-46
2022/03/11 12:12:20;;;;;;;19.33;11.40;;;13.40;99.90;;;;;;5035708;28;20247;-45
2022/03/11 12:15:04;;;;;;;20.33;12.20;;;13.50;99.90;;;;;;5035742;28;20169;-46
2022/03/11 12:18:03;;;;;;;20.13;12.20;;;13.50;99.90;;;;;;5035523;28;20263;-47
2022/03/11 12:20:33;;;;;;;17.10;9.77;;;13.50;99.90;;;;;;5035104;28;20173;-49
2022/03/11 12:23:07;;;;;;;18.83;10.90;;;13.50;99.90;;;;;;5035470;28;20184;-46
2022/03/11 12:25:46;;;;;;;16.60;10.63;;;13.60;99.90;;;;;;5035326;28;20668;-46
2022/03/11 12:28:13;;;;;;;18.97;12.53;;;13.60;99.90;;;;;;5034961;28;20211;-43
2022/03/11 12:30:58;;;;;;;12.23;9.23;;;13.70;99.90;;;;;;5035026;28;20181;-48
2022/03/11 12:33:33;;;;;;;8.57;5.60;;;13.70;99.90;;;;;;5034999;28;20195;-45
2022/03/11 12:36:00;;;;;;;15.80;11.53;;;13.80;99.90;;;;;;5035215;28;20181;-46
2022/03/11 12:38:28;;;;;;;18.97;11.10;;;13.90;99.90;;;;;;5035118;28;20266;-45
2022/03/11 12:41:01;;;;;;;18.13;10.03;;;13.90;99.90;;;;;;5035005;28;20387;-44
2022/03/11 12:43:26;;;;;;;15.43;10.30;;;13.90;99.90;;;;;;5034854;28;20173;-45
2022/03/11 12:45:55;;;;;;;18.83;9.47;;;13.90;99.90;;;;;;5034687;28;20209;-46
2022/03/11 12:48:24;;;;;;;11.57;6.13;;;14.00;99.90;;;;;;5034732;28;20200;-44